createdAt,value
2022-11-27T00:00:08.341Z,6.80
2022-11-27T00:03:20.830Z,7.00
2022-11-27T00:06:13.821Z,6.07
2022-11-27T00:09:05.111Z,5.97
2022-11-27T00:11:55.017Z,4.55
2022-11-27T00:14:43.568Z,6.78
2022-11-27T00:17:31.836Z,5.15
2022-11-27T00:20:20.200Z,5.90
2022-11-27T00:23:09.043Z,5.13
2022-11-27T00:25:57.298Z,4.97
2022-11-27T00:28:47.450Z,5.30
2022-11-27T00:31:37.615Z,6.07
2022-11-27T00:34:26.631Z,5.10
2022-11-27T00:37:15.168Z,7.10
2022-11-27T00:40:03.591Z,5.40
2022-11-27T00:42:52.153Z,5.25
2022-11-27T00:45:42.260Z,5.70
2022-11-27T00:48:31.101Z,5.43
2022-11-27T00:51:22.066Z,6.18
2022-11-27T00:54:11.129Z,5.03
2022-11-27T00:56:59.484Z,5.70
2022-11-27T00:59:48.467Z,5.97
2022-11-27T01:02:38.509Z,4.97
2022-11-27T01:05:27.329Z,6.22
2022-11-27T01:08:15.517Z,5.38
2022-11-27T01:11:04.399Z,4.57
2022-11-27T01:13:53.177Z,5.93
2022-11-27T01:16:43.253Z,5.22
2022-11-27T01:19:33.422Z,4.53
2022-11-27T01:22:21.660Z,5.75
2022-11-27T01:25:11.010Z,5.95
2022-11-27T01:27:59.619Z,6.00
2022-11-27T01:30:48.231Z,4.93
2022-11-27T01:33:37.264Z,5.18
2022-11-27T01:36:27.820Z,4.70
2022-11-27T01:39:18.847Z,5.50
2022-11-27T01:44:57.014Z,6.00
2022-11-27T01:47:49.178Z,5.30
2022-11-27T01:50:39.922Z,4.88
2022-11-27T01:56:18.720Z,5.30
2022-11-27T01:59:07.490Z,5.30
2022-11-27T02:01:56.257Z,4.45
2022-11-27T02:04:44.671Z,5.05
2022-11-27T02:07:33.394Z,4.97
2022-11-27T02:10:28.395Z,4.97
2022-11-27T02:13:24.631Z,5.55
2022-11-27T02:16:19.503Z,4.97
2022-11-27T02:19:16.834Z,5.13
2022-11-27T02:22:09.910Z,4.40
2022-11-27T02:25:08.713Z,4.90
2022-11-27T02:28:22.633Z,6.10
2022-11-27T02:31:18.213Z,4.68
2022-11-27T02:34:17.064Z,5.38
2022-11-27T02:37:10.766Z,4.53
2022-11-27T02:40:06.044Z,6.40
2022-11-27T02:43:00.663Z,5.60
2022-11-27T02:45:51.778Z,4.78
2022-11-27T02:48:46.205Z,4.68
2022-11-27T02:51:39.182Z,5.07
2022-11-27T02:54:31.285Z,5.65
2022-11-27T02:57:22.377Z,4.80
2022-11-27T03:00:12.857Z,4.55
2022-11-27T03:03:06.875Z,5.40
2022-11-27T03:06:02.787Z,4.40
2022-11-27T03:08:55.721Z,4.60
2022-11-27T03:11:44.567Z,4.53
2022-11-27T03:14:33.140Z,5.10
2022-11-27T03:17:36.061Z,4.85
2022-11-27T03:20:27.287Z,4.70
2022-11-27T03:23:16.657Z,5.07
2022-11-27T03:26:05.206Z,4.90
2022-11-27T03:28:55.948Z,4.70
2022-11-27T03:34:33.825Z,4.40
2022-11-27T03:37:23.614Z,4.20
2022-11-27T03:40:14.817Z,5.35
2022-11-27T03:43:11.449Z,4.75
2022-11-27T03:46:06.053Z,4.55
2022-11-27T03:48:59.672Z,4.93
2022-11-27T03:51:53.573Z,4.70
2022-11-27T03:54:48.056Z,4.78
2022-11-27T03:57:43.619Z,5.72
2022-11-27T04:00:35.953Z,4.45
2022-11-27T04:03:26.126Z,4.93
2022-11-27T04:06:14.329Z,4.55
2022-11-27T04:09:02.885Z,4.30
2022-11-27T04:11:51.062Z,5.68
2022-11-27T04:14:40.831Z,4.55
2022-11-27T04:17:29.424Z,4.37
2022-11-27T04:20:17.948Z,4.65
2022-11-27T04:23:06.377Z,4.30
2022-11-27T04:25:54.588Z,4.82
2022-11-27T04:28:43.071Z,4.45
2022-11-27T04:31:33.270Z,5.00
2022-11-27T04:34:21.775Z,4.22
2022-11-27T04:37:10.693Z,5.18
2022-11-27T04:39:58.941Z,4.63
2022-11-27T04:42:47.048Z,5.53
2022-11-27T04:45:35.638Z,4.00
2022-11-27T04:48:25.682Z,3.90
2022-11-27T04:51:14.044Z,4.43
2022-11-27T04:54:02.379Z,4.22
2022-11-27T04:56:50.883Z,3.67
2022-11-27T04:59:38.978Z,5.65
2022-11-27T05:02:27.818Z,4.47
2022-11-27T05:05:17.680Z,4.07
2022-11-27T05:08:06.499Z,4.50
2022-11-27T05:11:03.213Z,4.20
2022-11-27T05:14:12.208Z,3.63
2022-11-27T05:17:00.789Z,3.83
2022-11-27T05:19:49.360Z,4.25
2022-11-27T05:22:38.541Z,4.45
2022-11-27T05:25:27.183Z,4.40
2022-11-27T05:28:15.512Z,5.05
2022-11-27T05:31:04.404Z,5.13
2022-11-27T05:33:52.943Z,4.22
2022-11-27T05:36:42.362Z,4.90
2022-11-27T05:39:31.991Z,4.82
2022-11-27T05:42:20.885Z,4.20
2022-11-27T05:45:09.997Z,5.40
2022-11-27T05:47:59.088Z,5.63
2022-11-27T05:50:47.421Z,5.03
2022-11-27T05:53:36.229Z,4.47
2022-11-27T05:56:25.952Z,5.10
2022-11-27T05:59:15.466Z,3.85
2022-11-27T06:02:05.164Z,5.22
2022-11-27T06:04:53.679Z,4.97
2022-11-27T06:07:42.201Z,5.22
2022-11-27T06:10:30.581Z,4.82
2022-11-27T06:13:20.171Z,4.10
2022-11-27T06:16:11.994Z,4.75
2022-11-27T06:18:59.996Z,4.75
2022-11-27T06:21:48.251Z,3.83
2022-11-27T06:24:36.567Z,4.38
2022-11-27T06:27:24.946Z,4.20
2022-11-27T06:30:15.897Z,4.10
2022-11-27T06:33:04.839Z,4.47
2022-11-27T06:35:56.365Z,3.97
2022-11-27T06:38:45.146Z,4.22
2022-11-27T06:41:33.808Z,4.55
2022-11-27T06:44:23.101Z,3.83
2022-11-27T06:47:12.726Z,4.80
2022-11-27T06:50:01.687Z,4.10
2022-11-27T06:52:50.642Z,5.40
2022-11-27T06:55:39.619Z,4.45
2022-11-27T06:58:31.229Z,4.50
2022-11-27T07:01:19.992Z,4.30
2022-11-27T07:04:11.822Z,4.45
2022-11-27T07:07:00.608Z,4.47
2022-11-27T07:09:49.051Z,4.57
2022-11-27T07:12:37.703Z,4.32
2022-11-27T07:15:25.721Z,4.25
2022-11-27T07:18:14.301Z,4.72
2022-11-27T07:21:04.573Z,3.90
2022-11-27T07:23:52.630Z,5.07
2022-11-27T07:26:41.081Z,5.07
2022-11-27T07:29:29.555Z,4.40
2022-11-27T07:32:17.458Z,4.05
2022-11-27T07:35:06.368Z,5.88
2022-11-27T07:37:56.256Z,4.85
2022-11-27T07:40:44.862Z,4.20
2022-11-27T07:43:33.998Z,3.97
2022-11-27T07:46:25.529Z,4.30
2022-11-27T07:49:13.532Z,4.25
2022-11-27T07:52:02.578Z,4.47
2022-11-27T07:54:52.651Z,4.82
2022-11-27T07:57:42.472Z,4.13
2022-11-27T08:00:31.193Z,4.68
2022-11-27T08:03:19.933Z,3.88
2022-11-27T08:06:16.133Z,4.07
2022-11-27T08:09:04.632Z,3.95
2022-11-27T08:11:54.122Z,4.43
2022-11-27T08:14:42.608Z,3.60
2022-11-27T08:17:31.366Z,4.63
2022-11-27T08:20:20.047Z,4.28
2022-11-27T08:23:07.947Z,3.65
2022-11-27T08:25:56.224Z,4.47
2022-11-27T08:28:46.651Z,4.07
2022-11-27T08:31:35.632Z,4.35
2022-11-27T08:34:23.959Z,4.53
2022-11-27T08:37:12.632Z,3.33
2022-11-27T08:40:00.814Z,4.78
2022-11-27T08:42:49.962Z,5.05
2022-11-27T08:45:41.060Z,3.75
2022-11-27T08:48:29.573Z,4.18
2022-11-27T08:51:19.811Z,4.00
2022-11-27T08:54:08.518Z,3.92
2022-11-27T08:56:56.630Z,5.15
2022-11-27T08:59:44.884Z,3.95
2022-11-27T09:02:34.986Z,4.82
2022-11-27T09:05:23.644Z,4.22
2022-11-27T09:08:16.641Z,4.55
2022-11-27T09:11:05.813Z,4.30
2022-11-27T09:13:54.958Z,4.53
2022-11-27T09:16:43.236Z,3.55
2022-11-27T09:19:33.381Z,4.40
2022-11-27T09:22:22.071Z,4.63
2022-11-27T09:25:10.976Z,3.58
2022-11-27T09:27:59.019Z,4.53
2022-11-27T09:30:47.720Z,4.22
2022-11-27T09:33:38.237Z,4.22
2022-11-27T09:36:28.523Z,4.13
2022-11-27T09:39:19.414Z,3.43
2022-11-27T09:42:09.874Z,4.75
2022-11-27T09:45:00.432Z,5.07
2022-11-27T09:47:54.281Z,3.63
2022-11-27T09:50:50.278Z,3.38
2022-11-27T09:53:48.563Z,3.22
2022-11-27T09:56:37.740Z,3.78
2022-11-27T09:59:33.749Z,4.68
2022-11-27T10:02:27.756Z,4.10
2022-11-27T10:05:21.865Z,4.05
2022-11-27T10:08:30.546Z,3.67
2022-11-27T10:11:28.212Z,4.30
2022-11-27T10:14:38.239Z,4.30
2022-11-27T10:17:32.889Z,4.22
2022-11-27T10:20:29.645Z,4.53
2022-11-27T10:23:41.826Z,3.70
2022-11-27T10:26:39.103Z,3.55
2022-11-27T10:29:37.078Z,3.90
2022-11-27T10:32:54.189Z,3.67
2022-11-27T10:35:36.935Z,5.25
2022-11-27T10:38:28.331Z,4.03
2022-11-27T10:44:36.875Z,3.53
2022-11-27T10:47:32.229Z,3.58
2022-11-27T10:50:22.611Z,3.72
2022-11-27T10:53:13.790Z,3.97
2022-11-27T10:56:30.243Z,3.72
2022-11-27T10:59:22.926Z,4.20
2022-11-27T11:02:29.199Z,3.13
2022-11-27T11:05:37.684Z,4.40
2022-11-27T11:08:32.509Z,3.80
2022-11-27T11:11:27.725Z,3.33
2022-11-27T11:14:18.534Z,3.83
2022-11-27T11:17:17.281Z,3.85
2022-11-27T11:20:20.199Z,3.67
2022-11-27T11:23:08.645Z,3.63
2022-11-27T11:26:00.982Z,4.38
2022-11-27T11:28:53.522Z,3.65
2022-11-27T11:31:42.827Z,3.83
2022-11-27T11:34:32.672Z,4.00
2022-11-27T11:37:26.038Z,4.28
2022-11-27T11:40:24.636Z,3.72
2022-11-27T11:43:26.907Z,4.30
2022-11-27T11:46:22.632Z,3.40
2022-11-27T11:49:23.365Z,3.40
2022-11-27T11:52:22.156Z,3.63
2022-11-27T11:55:19.698Z,3.33
2022-11-27T11:58:42.362Z,3.90
2022-11-27T12:01:54.708Z,3.58
2022-11-27T12:05:03.701Z,3.80
2022-11-27T12:08:09.849Z,3.83
2022-11-27T12:11:09.085Z,4.05
2022-11-27T12:14:11.585Z,4.32
2022-11-27T12:17:14.878Z,3.40
2022-11-27T12:20:15.206Z,3.55
2022-11-27T12:23:34.793Z,4.22
2022-11-27T12:26:36.590Z,3.20
2022-11-27T12:29:46.090Z,4.20
2022-11-27T12:32:56.331Z,4.00
2022-11-27T12:35:51.116Z,3.25
2022-11-27T12:38:55.228Z,2.90
2022-11-27T12:42:02.811Z,4.15
2022-11-27T12:44:56.574Z,4.32
2022-11-27T12:47:47.984Z,3.50
2022-11-27T12:50:42.630Z,3.38
2022-11-27T12:53:37.885Z,3.90
2022-11-27T12:56:29.953Z,3.38
2022-11-27T13:02:25.178Z,3.08
2022-11-27T13:05:18.222Z,3.88
2022-11-27T13:08:14.473Z,2.95
2022-11-27T13:11:07.945Z,3.90
2022-11-27T13:14:01.804Z,3.47
2022-11-27T13:16:54.708Z,3.75
2022-11-27T13:19:46.429Z,4.63
2022-11-27T13:22:36.272Z,3.53
2022-11-27T13:25:24.862Z,3.50
2022-11-27T13:28:23.251Z,3.42
2022-11-27T13:31:20.847Z,3.53
2022-11-27T13:34:18.552Z,3.97
2022-11-27T13:37:09.840Z,3.38
2022-11-27T13:40:04.541Z,3.58
2022-11-27T13:42:57.082Z,3.92
2022-11-27T13:45:46.098Z,3.72
2022-11-27T13:48:37.843Z,2.95
2022-11-27T13:54:24.512Z,4.57
2022-11-27T13:57:18.560Z,4.43
2022-11-27T14:00:09.891Z,3.78
2022-11-27T14:03:04.646Z,4.43
2022-11-27T14:05:53.982Z,3.85
2022-11-27T14:08:51.629Z,3.90
2022-11-27T14:11:45.674Z,3.42
2022-11-27T14:14:33.809Z,3.47
2022-11-27T14:17:28.414Z,4.80
2022-11-27T14:20:30.067Z,3.25
2022-11-27T14:23:28.946Z,4.13
2022-11-27T14:26:24.429Z,3.80
2022-11-27T14:29:13.421Z,3.10
2022-11-27T14:32:02.979Z,3.53
2022-11-27T14:34:52.090Z,4.25
2022-11-27T14:37:40.213Z,3.35
2022-11-27T14:40:29.561Z,2.80
2022-11-27T14:43:23.839Z,3.50
2022-11-27T14:46:17.697Z,3.22
2022-11-27T14:49:06.331Z,3.25
2022-11-27T14:51:56.943Z,3.13
2022-11-27T14:54:46.057Z,4.25
2022-11-27T14:57:35.624Z,3.08
2022-11-27T15:00:28.876Z,3.58
2022-11-27T15:03:20.236Z,2.80
2022-11-27T15:06:09.364Z,3.50
2022-11-27T15:09:29.792Z,3.05
2022-11-27T15:12:16.629Z,3.40
2022-11-27T15:15:09.911Z,3.92
2022-11-27T15:18:02.911Z,3.63
2022-11-27T15:20:52.171Z,3.42
2022-11-27T15:23:46.365Z,3.47
2022-11-27T15:26:37.792Z,3.85
2022-11-27T15:29:36.239Z,3.35
2022-11-27T15:32:30.887Z,4.25
2022-11-27T15:35:26.674Z,2.95
2022-11-27T15:38:19.913Z,3.42
2022-11-27T15:41:19.549Z,2.85
2022-11-27T15:44:10.585Z,2.95
2022-11-27T15:47:01.441Z,3.78
2022-11-27T15:49:50.384Z,3.20
2022-11-27T15:52:40.414Z,3.55
2022-11-27T15:55:28.460Z,3.15
2022-11-27T15:58:17.372Z,3.45
2022-11-27T16:01:08.000Z,3.47
2022-11-27T16:03:56.616Z,3.72
2022-11-27T16:06:45.064Z,3.05
2022-11-27T16:09:35.993Z,4.38
2022-11-27T16:15:13.487Z,3.78
2022-11-27T16:18:02.412Z,3.40
2022-11-27T16:20:50.919Z,2.92
2022-11-27T16:23:41.247Z,3.70
2022-11-27T16:26:32.453Z,4.13
2022-11-27T16:29:20.980Z,3.00
2022-11-27T16:32:09.402Z,3.05
2022-11-27T16:34:58.302Z,3.42
2022-11-27T16:37:46.938Z,2.97
2022-11-27T16:40:35.710Z,3.53
2022-11-27T16:43:25.568Z,3.88
2022-11-27T16:46:16.589Z,3.70
2022-11-27T16:49:07.443Z,3.28
2022-11-27T16:51:56.371Z,3.45
2022-11-27T16:54:44.513Z,3.55
2022-11-27T16:57:33.858Z,3.08
2022-11-27T17:00:23.595Z,3.08
2022-11-27T17:03:12.526Z,3.03
2022-11-27T17:06:00.812Z,3.03
2022-11-27T17:08:50.364Z,3.83
2022-11-27T17:11:42.209Z,2.88
2022-11-27T17:14:31.494Z,3.47
2022-11-27T17:17:21.449Z,3.88
2022-11-27T17:20:10.905Z,3.08
2022-11-27T17:23:00.980Z,3.15
2022-11-27T17:25:49.498Z,3.40
2022-11-27T17:28:39.071Z,3.33
2022-11-27T17:31:32.789Z,3.03
2022-11-27T17:34:22.577Z,2.58
2022-11-27T17:37:15.756Z,3.20
2022-11-27T17:40:04.338Z,3.45
2022-11-27T17:42:54.183Z,3.20
2022-11-27T17:45:42.745Z,3.20
2022-11-27T17:48:31.752Z,3.58
2022-11-27T17:51:22.410Z,3.13
2022-11-27T17:54:16.787Z,3.17
2022-11-27T17:57:06.395Z,3.75
2022-11-27T17:59:59.905Z,3.03
2022-11-27T18:02:48.876Z,2.88
2022-11-27T18:05:38.525Z,3.40
2022-11-27T18:08:28.729Z,3.72
2022-11-27T18:11:19.079Z,3.13
2022-11-27T18:14:07.181Z,3.45
2022-11-27T18:16:55.563Z,3.22
2022-11-27T18:19:43.873Z,3.38
2022-11-27T18:22:38.609Z,3.55
2022-11-27T18:25:28.593Z,2.92
2022-11-27T18:28:18.900Z,3.45
2022-11-27T18:31:08.122Z,3.30
2022-11-27T18:33:58.245Z,3.28
2022-11-27T18:36:47.496Z,3.00
2022-11-27T18:39:36.541Z,3.40
2022-11-27T18:42:26.790Z,3.97
2022-11-27T18:45:31.666Z,3.13
2022-11-27T18:48:22.121Z,2.80
2022-11-27T18:51:13.183Z,3.50
2022-11-27T18:54:02.490Z,3.15
2022-11-27T18:56:51.664Z,2.90
2022-11-27T18:59:44.865Z,3.30
2022-11-27T19:02:34.014Z,3.60
2022-11-27T19:05:22.972Z,3.00
2022-11-27T19:08:11.775Z,3.10
2022-11-27T19:11:02.852Z,2.75
2022-11-27T19:13:59.213Z,2.90
2022-11-27T19:16:49.717Z,3.50
2022-11-27T19:19:55.937Z,3.40
2022-11-27T19:22:45.725Z,4.55
2022-11-27T19:25:38.828Z,2.75
2022-11-27T19:28:26.877Z,3.55
2022-11-27T19:31:16.457Z,3.13
2022-11-27T19:34:07.481Z,3.47
2022-11-27T19:36:57.031Z,2.90
2022-11-27T19:39:45.524Z,3.90
2022-11-27T19:42:35.022Z,2.97
2022-11-27T19:45:25.236Z,3.05
2022-11-27T19:48:15.655Z,3.03
2022-11-27T19:51:07.973Z,3.70
2022-11-27T19:53:57.190Z,3.43
2022-11-27T19:56:45.296Z,2.95
2022-11-27T19:59:34.019Z,2.92
2022-11-27T20:02:22.661Z,3.30
2022-11-27T20:05:11.894Z,3.45
2022-11-27T20:08:04.253Z,2.72
2022-11-27T20:10:52.681Z,3.00
2022-11-27T20:13:41.386Z,3.55
2022-11-27T20:16:29.881Z,3.25
2022-11-27T20:19:18.490Z,3.80
2022-11-27T20:22:07.754Z,3.13
2022-11-27T20:25:18.365Z,3.30
2022-11-27T20:28:06.408Z,3.03
2022-11-27T20:30:57.980Z,3.15
2022-11-27T20:33:47.079Z,2.83
2022-11-27T20:36:38.517Z,2.92
2022-11-27T20:39:28.537Z,3.17
2022-11-27T20:42:18.444Z,3.42
2022-11-27T20:45:08.541Z,2.60
2022-11-27T20:47:57.240Z,3.38
2022-11-27T20:50:50.980Z,2.88
2022-11-27T20:53:40.855Z,4.65
2022-11-27T20:56:30.274Z,3.05
2022-11-27T20:59:22.136Z,2.90
2022-11-27T21:02:12.596Z,2.60
2022-11-27T21:05:01.316Z,3.10
2022-11-27T21:07:50.145Z,3.33
2022-11-27T21:10:38.553Z,3.42
2022-11-27T21:13:27.354Z,3.00
2022-11-27T21:16:16.939Z,3.53
2022-11-27T21:19:07.848Z,2.85
2022-11-27T21:21:57.177Z,3.63
2022-11-27T21:24:46.207Z,2.58
2022-11-27T21:27:37.368Z,4.03
2022-11-27T21:30:25.998Z,3.40
2022-11-27T21:33:15.634Z,2.95
2022-11-27T21:36:04.369Z,3.03
2022-11-27T21:38:54.253Z,3.08
2022-11-27T21:41:42.828Z,2.47
2022-11-27T21:44:32.745Z,3.20
2022-11-27T21:47:21.421Z,2.90
2022-11-27T21:50:13.762Z,3.20
2022-11-27T21:53:02.324Z,3.17
2022-11-27T21:55:50.590Z,3.33
2022-11-27T21:58:39.686Z,3.17
2022-11-27T22:01:28.346Z,2.80
2022-11-27T22:04:17.904Z,2.50
2022-11-27T22:07:07.921Z,2.58
2022-11-27T22:09:56.313Z,2.75
2022-11-27T22:12:44.994Z,3.22
2022-11-27T22:15:33.412Z,2.70
2022-11-27T22:18:21.953Z,3.40
2022-11-27T22:21:13.278Z,2.80
2022-11-27T22:24:04.539Z,3.22
2022-11-27T22:26:53.567Z,2.85
2022-11-27T22:29:42.021Z,3.47
2022-11-27T22:32:30.909Z,2.97
2022-11-27T22:35:19.114Z,3.40
2022-11-27T22:38:08.162Z,3.20
2022-11-27T22:41:00.791Z,2.88
2022-11-27T22:43:49.312Z,2.88
2022-11-27T22:46:40.579Z,3.10
2022-11-27T22:49:29.647Z,3.60
2022-11-27T22:52:17.803Z,3.22
2022-11-27T22:55:06.975Z,2.85
2022-11-27T22:57:56.544Z,3.05
2022-11-27T23:00:45.152Z,3.15
2022-11-27T23:03:34.639Z,2.75
2022-11-27T23:06:24.831Z,3.10
2022-11-27T23:09:13.281Z,3.43
2022-11-27T23:12:02.480Z,3.78
2022-11-27T23:14:52.148Z,3.13
2022-11-27T23:17:40.719Z,2.83
2022-11-27T23:20:29.114Z,2.85
2022-11-27T23:23:17.925Z,3.33
2022-11-27T23:26:07.431Z,3.38
2022-11-27T23:28:55.960Z,2.72
2022-11-27T23:31:45.538Z,2.75
2022-11-27T23:34:34.374Z,3.17
2022-11-27T23:37:22.552Z,2.75
2022-11-27T23:40:11.628Z,2.58
2022-11-27T23:42:59.721Z,2.88
2022-11-27T23:45:48.468Z,3.58
2022-11-27T23:48:38.441Z,2.67
2022-11-27T23:51:29.417Z,2.67
2022-11-27T23:54:17.610Z,3.37
2022-11-27T23:57:06.025Z,3.08
2022-11-27T23:59:54.135Z,2.78
